sensor_id;sensor_type;location;lat;lon;timestamp;P1;durP1;ratioP1;P2;durP2;ratioP2
22652;SDS011;11493;43.344;26.226;2022-07-30T00:02:06;11.10;;;4.50;;
22652;SDS011;11493;43.344;26.226;2022-07-30T00:04:34;4.68;;;4.28;;
22652;SDS011;11493;43.344;26.226;2022-07-30T00:07:01;9.43;;;4.50;;
22652;SDS011;11493;43.344;26.226;2022-07-30T00:09:30;14.25;;;4.50;;
22652;SDS011;11493;43.344;26.226;2022-07-30T00:12:02;6.18;;;4.20;;
22652;SDS011;11493;43.344;26.226;2022-07-30T00:14:31;7.55;;;3.90;;
22652;SDS011;11493;43.344;26.226;2022-07-30T00:16:58;5.05;;;4.60;;
22652;SDS011;11493;43.344;26.226;2022-07-30T00:19:26;7.68;;;3.78;;
22652;SDS011;11493;43.344;26.226;2022-07-30T00:21:54;6.18;;;4.00;;
22652;SDS011;11493;43.344;26.226;2022-07-30T00:24:21;7.95;;;3.90;;
22652;SDS011;11493;43.344;26.226;2022-07-30T00:26:49;5.95;;;4.00;;
22652;SDS011;11493;43.344;26.226;2022-07-30T00:29:16;4.90;;;4.28;;
22652;SDS011;11493;43.344;26.226;2022-07-30T00:31:44;5.47;;;4.50;;
22652;SDS011;11493;43.344;26.226;2022-07-30T00:34:11;6.85;;;4.50;;
22652;SDS011;11493;43.344;26.226;2022-07-30T00:36:38;5.07;;;4.57;;
22652;SDS011;11493;43.344;26.226;2022-07-30T00:39:06;4.97;;;4.47;;
22652;SDS011;11493;43.344;26.226;2022-07-30T00:41:34;11.32;;;4.32;;
22652;SDS011;11493;43.344;26.226;2022-07-30T00:44:03;6.00;;;5.38;;
22652;SDS011;11493;43.344;26.226;2022-07-30T00:46:31;7.97;;;4.65;;
22652;SDS011;11493;43.344;26.226;2022-07-30T00:48:58;8.05;;;4.10;;
22652;SDS011;11493;43.344;26.226;2022-07-30T00:51:25;4.88;;;4.47;;
22652;SDS011;11493;43.344;26.226;2022-07-30T00:53:52;6.70;;;4.05;;
22652;SDS011;11493;43.344;26.226;2022-07-30T00:56:20;4.90;;;4.40;;
22652;SDS011;11493;43.344;26.226;2022-07-30T00:58:48;4.60;;;4.20;;
22652;SDS011;11493;43.344;26.226;2022-07-30T01:01:15;4.80;;;4.50;;
22652;SDS011;11493;43.344;26.226;2022-07-30T01:03:42;14.20;;;5.65;;
22652;SDS011;11493;43.344;26.226;2022-07-30T01:06:10;5.00;;;4.60;;
22652;SDS011;11493;43.344;26.226;2022-07-30T01:09:01;5.05;;;4.47;;
22652;SDS011;11493;43.344;26.226;2022-07-30T01:11:31;4.68;;;4.28;;
22652;SDS011;11493;43.344;26.226;2022-07-30T01:14:06;6.95;;;4.40;;
22652;SDS011;11493;43.344;26.226;2022-07-30T01:16:35;5.00;;;4.60;;
22652;SDS011;11493;43.344;26.226;2022-07-30T01:19:05;9.52;;;4.00;;
22652;SDS011;11493;43.344;26.226;2022-07-30T01:22:02;7.50;;;4.55;;
22652;SDS011;11493;43.344;26.226;2022-07-30T01:24:42;6.35;;;4.70;;
22652;SDS011;11493;43.344;26.226;2022-07-30T01:27:12;5.00;;;4.50;;
22652;SDS011;11493;43.344;26.226;2022-07-30T01:29:45;5.90;;;4.30;;
22652;SDS011;11493;43.344;26.226;2022-07-30T01:32:15;6.55;;;4.22;;
22652;SDS011;11493;43.344;26.226;2022-07-30T01:34:45;5.38;;;4.85;;
22652;SDS011;11493;43.344;26.226;2022-07-30T01:37:13;6.68;;;4.63;;
22652;SDS011;11493;43.344;26.226;2022-07-30T01:39:46;4.13;;;3.83;;
22652;SDS011;11493;43.344;26.226;2022-07-30T01:42:15;6.78;;;4.50;;
22652;SDS011;11493;43.344;26.226;2022-07-30T01:44:45;5.00;;;4.38;;
22652;SDS011;11493;43.344;26.226;2022-07-30T01:47:16;6.00;;;4.82;;
22652;SDS011;11493;43.344;26.226;2022-07-30T01:49:45;4.18;;;3.88;;
22652;SDS011;11493;43.344;26.226;2022-07-30T01:52:15;10.77;;;4.00;;
22652;SDS011;11493;43.344;26.226;2022-07-30T01:54:44;5.38;;;3.97;;
22652;SDS011;11493;43.344;26.226;2022-07-30T01:57:15;6.30;;;4.32;;
22652;SDS011;11493;43.344;26.226;2022-07-30T01:59:46;4.97;;;4.30;;
22652;SDS011;11493;43.344;26.226;2022-07-30T02:02:17;5.85;;;4.20;;
22652;SDS011;11493;43.344;26.226;2022-07-30T02:04:45;4.68;;;4.28;;
22652;SDS011;11493;43.344;26.226;2022-07-30T02:09:42;5.97;;;4.10;;
22652;SDS011;11493;43.344;26.226;2022-07-30T02:12:20;6.10;;;4.28;;
22652;SDS011;11493;43.344;26.226;2022-07-30T02:15:42;8.13;;;4.72;;
22652;SDS011;11493;43.344;26.226;2022-07-30T02:18:02;9.52;;;4.95;;
22652;SDS011;11493;43.344;26.226;2022-07-30T02:20:33;10.52;;;5.03;;
22652;SDS011;11493;43.344;26.226;2022-07-30T02:23:05;4.72;;;4.28;;
22652;SDS011;11493;43.344;26.226;2022-07-30T02:28:09;5.32;;;4.30;;
22652;SDS011;11493;43.344;26.226;2022-07-30T02:30:40;5.05;;;4.57;;
22652;SDS011;11493;43.344;26.226;2022-07-30T02:33:13;5.07;;;4.55;;
22652;SDS011;11493;43.344;26.226;2022-07-30T02:35:43;5.05;;;4.13;;
22652;SDS011;11493;43.344;26.226;2022-07-30T02:38:11;5.50;;;5.00;;
22652;SDS011;11493;43.344;26.226;2022-07-30T02:40:42;6.50;;;4.80;;
22652;SDS011;11493;43.344;26.226;2022-07-30T02:43:12;6.70;;;5.32;;
22652;SDS011;11493;43.344;26.226;2022-07-30T02:45:45;8.10;;;4.80;;
22652;SDS011;11493;43.344;26.226;2022-07-30T02:48:14;7.18;;;4.63;;
22652;SDS011;11493;43.344;26.226;2022-07-30T02:51:00;5.65;;;4.60;;
22652;SDS011;11493;43.344;26.226;2022-07-30T02:53:30;11.05;;;5.35;;
22652;SDS011;11493;43.344;26.226;2022-07-30T02:55:59;5.88;;;5.25;;
22652;SDS011;11493;43.344;26.226;2022-07-30T02:58:28;5.72;;;4.18;;
22652;SDS011;11493;43.344;26.226;2022-07-30T03:00:56;11.43;;;5.57;;
22652;SDS011;11493;43.344;26.226;2022-07-30T03:03:29;6.68;;;5.25;;
22652;SDS011;11493;43.344;26.226;2022-07-30T03:05:57;6.68;;;5.55;;
22652;SDS011;11493;43.344;26.226;2022-07-30T03:08:26;6.95;;;4.55;;
22652;SDS011;11493;43.344;26.226;2022-07-30T03:10:54;6.55;;;5.10;;
22652;SDS011;11493;43.344;26.226;2022-07-30T03:13:23;8.43;;;5.03;;
22652;SDS011;11493;43.344;26.226;2022-07-30T03:15:51;5.32;;;4.88;;
22652;SDS011;11493;43.344;26.226;2022-07-30T03:18:19;5.72;;;5.22;;
22652;SDS011;11493;43.344;26.226;2022-07-30T03:20:50;6.90;;;5.00;;
22652;SDS011;11493;43.344;26.226;2022-07-30T03:23:21;5.93;;;4.93;;
22652;SDS011;11493;43.344;26.226;2022-07-30T03:25:51;5.75;;;5.25;;
22652;SDS011;11493;43.344;26.226;2022-07-30T03:28:24;7.13;;;5.60;;
22652;SDS011;11493;43.344;26.226;2022-07-30T03:30:52;9.60;;;5.45;;
22652;SDS011;11493;43.344;26.226;2022-07-30T03:33:20;7.88;;;5.20;;
22652;SDS011;11493;43.344;26.226;2022-07-30T03:36:05;9.85;;;5.63;;
22652;SDS011;11493;43.344;26.226;2022-07-30T03:38:35;6.23;;;5.03;;
22652;SDS011;11493;43.344;26.226;2022-07-30T03:41:05;6.00;;;5.47;;
22652;SDS011;11493;43.344;26.226;2022-07-30T03:43:34;6.40;;;5.70;;
22652;SDS011;11493;43.344;26.226;2022-07-30T03:46:03;9.25;;;5.60;;
22652;SDS011;11493;43.344;26.226;2022-07-30T03:48:34;7.07;;;5.30;;
22652;SDS011;11493;43.344;26.226;2022-07-30T03:51:02;8.20;;;5.18;;
22652;SDS011;11493;43.344;26.226;2022-07-30T03:53:30;8.25;;;5.90;;
22652;SDS011;11493;43.344;26.226;2022-07-30T03:56:17;7.97;;;5.55;;
22652;SDS011;11493;43.344;26.226;2022-07-30T03:59:03;10.82;;;5.35;;
22652;SDS011;11493;43.344;26.226;2022-07-30T04:01:35;9.82;;;5.60;;
22652;SDS011;11493;43.344;26.226;2022-07-30T04:04:19;6.32;;;5.40;;
22652;SDS011;11493;43.344;26.226;2022-07-30T04:06:47;6.82;;;5.57;;
22652;SDS011;11493;43.344;26.226;2022-07-30T04:09:17;6.13;;;5.47;;
22652;SDS011;11493;43.344;26.226;2022-07-30T04:11:46;8.98;;;5.28;;
22652;SDS011;11493;43.344;26.226;2022-07-30T04:14:16;6.25;;;5.75;;
22652;SDS011;11493;43.344;26.226;2022-07-30T04:16:50;7.38;;;4.82;;
22652;SDS011;11493;43.344;26.226;2022-07-30T04:19:42;8.38;;;5.53;;
22652;SDS011;11493;43.344;26.226;2022-07-30T04:22:14;6.68;;;5.45;;
22652;SDS011;11493;43.344;26.226;2022-07-30T04:24:46;7.82;;;5.40;;
22652;SDS011;11493;43.344;26.226;2022-07-30T04:27:15;6.13;;;5.43;;
22652;SDS011;11493;43.344;26.226;2022-07-30T04:29:43;8.60;;;6.10;;
22652;SDS011;11493;43.344;26.226;2022-07-30T04:32:11;12.55;;;6.28;;
22652;SDS011;11493;43.344;26.226;2022-07-30T04:34:57;6.43;;;5.82;;
22652;SDS011;11493;43.344;26.226;2022-07-30T04:37:51;8.65;;;6.63;;
22652;SDS011;11493;43.344;26.226;2022-07-30T04:40:19;9.52;;;5.68;;
22652;SDS011;11493;43.344;26.226;2022-07-30T04:42:46;10.40;;;6.10;;
22652;SDS011;11493;43.344;26.226;2022-07-30T04:45:13;8.23;;;5.63;;
22652;SDS011;11493;43.344;26.226;2022-07-30T04:47:53;6.78;;;5.45;;
22652;SDS011;11493;43.344;26.226;2022-07-30T04:50:37;8.75;;;5.43;;
22652;SDS011;11493;43.344;26.226;2022-07-30T04:53:10;10.13;;;5.88;;
22652;SDS011;11493;43.344;26.226;2022-07-30T04:55:44;9.65;;;5.57;;
22652;SDS011;11493;43.344;26.226;2022-07-30T04:58:15;11.82;;;6.45;;
22652;SDS011;11493;43.344;26.226;2022-07-30T05:00:46;6.63;;;6.03;;
22652;SDS011;11493;43.344;26.226;2022-07-30T05:03:22;11.13;;;6.03;;
22652;SDS011;11493;43.344;26.226;2022-07-30T05:05:52;6.75;;;6.15;;
22652;SDS011;11493;43.344;26.226;2022-07-30T05:08:25;8.73;;;6.30;;
22652;SDS011;11493;43.344;26.226;2022-07-30T05:10:57;7.45;;;6.70;;
22652;SDS011;11493;43.344;26.226;2022-07-30T05:13:25;11.98;;;6.60;;
22652;SDS011;11493;43.344;26.226;2022-07-30T05:16:05;6.78;;;6.05;;
22652;SDS011;11493;43.344;26.226;2022-07-30T05:18:33;10.75;;;7.55;;
22652;SDS011;11493;43.344;26.226;2022-07-30T05:21:03;16.60;;;7.88;;
22652;SDS011;11493;43.344;26.226;2022-07-30T05:23:35;9.93;;;7.80;;
22652;SDS011;11493;43.344;26.226;2022-07-30T05:26:12;9.70;;;8.27;;
22652;SDS011;11493;43.344;26.226;2022-07-30T05:28:44;13.43;;;8.38;;
22652;SDS011;11493;43.344;26.226;2022-07-30T05:31:22;13.48;;;9.43;;
22652;SDS011;11493;43.344;26.226;2022-07-30T05:33:57;10.50;;;8.60;;
22652;SDS011;11493;43.344;26.226;2022-07-30T05:36:36;12.88;;;9.25;;
22652;SDS011;11493;43.344;26.226;2022-07-30T05:39:04;11.75;;;9.40;;
22652;SDS011;11493;43.344;26.226;2022-07-30T05:41:52;18.75;;;9.07;;
22652;SDS011;11493;43.344;26.226;2022-07-30T05:44:25;13.38;;;9.63;;
22652;SDS011;11493;43.344;26.226;2022-07-30T05:46:53;16.77;;;8.13;;
22652;SDS011;11493;43.344;26.226;2022-07-30T05:49:21;15.85;;;10.13;;
22652;SDS011;11493;43.344;26.226;2022-07-30T05:51:51;13.00;;;9.75;;
22652;SDS011;11493;43.344;26.226;2022-07-30T05:54:18;13.13;;;10.07;;
22652;SDS011;11493;43.344;26.226;2022-07-30T05:57:09;12.35;;;9.40;;
22652;SDS011;11493;43.344;26.226;2022-07-30T05:59:37;14.80;;;9.90;;
22652;SDS011;11493;43.344;26.226;2022-07-30T06:02:08;22.38;;;10.48;;
22652;SDS011;11493;43.344;26.226;2022-07-30T06:04:54;11.30;;;9.93;;
22652;SDS011;11493;43.344;26.226;2022-07-30T06:07:22;13.18;;;9.05;;
22652;SDS011;11493;43.344;26.226;2022-07-30T06:09:52;16.88;;;8.90;;
22652;SDS011;11493;43.344;26.226;2022-07-30T06:12:19;12.35;;;8.90;;
22652;SDS011;11493;43.344;26.226;2022-07-30T06:14:47;9.13;;;8.20;;
22652;SDS011;11493;43.344;26.226;2022-07-30T06:17:21;8.95;;;8.05;;
22652;SDS011;11493;43.344;26.226;2022-07-30T06:20:10;12.43;;;8.82;;
22652;SDS011;11493;43.344;26.226;2022-07-30T06:25:41;11.50;;;8.00;;
22652;SDS011;11493;43.344;26.226;2022-07-30T06:28:08;8.32;;;7.50;;
22652;SDS011;11493;43.344;26.226;2022-07-30T06:30:56;11.15;;;7.57;;
22652;SDS011;11493;43.344;26.226;2022-07-30T06:33:26;17.05;;;7.68;;
22652;SDS011;11493;43.344;26.226;2022-07-30T06:35:54;12.05;;;7.07;;
22652;SDS011;11493;43.344;26.226;2022-07-30T06:38:25;8.30;;;7.05;;
22652;SDS011;11493;43.344;26.226;2022-07-30T06:41:01;11.52;;;6.07;;
22652;SDS011;11493;43.344;26.226;2022-07-30T06:43:46;11.15;;;6.93;;
22652;SDS011;11493;43.344;26.226;2022-07-30T06:46:31;11.23;;;6.95;;
22652;SDS011;11493;43.344;26.226;2022-07-30T06:48:59;9.48;;;6.60;;
22652;SDS011;11493;43.344;26.226;2022-07-30T06:51:26;8.52;;;5.93;;
22652;SDS011;11493;43.344;26.226;2022-07-30T06:53:53;7.22;;;6.53;;
22652;SDS011;11493;43.344;26.226;2022-07-30T06:56:39;8.48;;;6.50;;
22652;SDS011;11493;43.344;26.226;2022-07-30T06:59:07;6.35;;;5.75;;
22652;SDS011;11493;43.344;26.226;2022-07-30T07:01:52;10.32;;;6.38;;
22652;SDS011;11493;43.344;26.226;2022-07-30T07:04:21;8.13;;;6.43;;
22652;SDS011;11493;43.344;26.226;2022-07-30T07:06:49;9.05;;;6.07;;
22652;SDS011;11493;43.344;26.226;2022-07-30T07:09:26;9.00;;;5.82;;
22652;SDS011;11493;43.344;26.226;2022-07-30T07:12:22;8.57;;;5.45;;
22652;SDS011;11493;43.344;26.226;2022-07-30T07:14:50;11.10;;;5.45;;
22652;SDS011;11493;43.344;26.226;2022-07-30T07:17:17;8.50;;;4.88;;
22652;SDS011;11493;43.344;26.226;2022-07-30T07:20:03;10.65;;;5.28;;
22652;SDS011;11493;43.344;26.226;2022-07-30T07:22:39;11.80;;;5.30;;
22652;SDS011;11493;43.344;26.226;2022-07-30T07:25:07;8.55;;;5.20;;
22652;SDS011;11493;43.344;26.226;2022-07-30T07:27:36;11.50;;;5.10;;
22652;SDS011;11493;43.344;26.226;2022-07-30T07:30:04;7.25;;;5.28;;
22652;SDS011;11493;43.344;26.226;2022-07-30T07:32:35;5.85;;;4.93;;
22652;SDS011;11493;43.344;26.226;2022-07-30T07:35:03;5.60;;;5.10;;
22652;SDS011;11493;43.344;26.226;2022-07-30T07:37:34;14.00;;;5.40;;
22652;SDS011;11493;43.344;26.226;2022-07-30T07:40:03;11.57;;;5.03;;
22652;SDS011;11493;43.344;26.226;2022-07-30T07:42:36;6.72;;;5.28;;
22652;SDS011;11493;43.344;26.226;2022-07-30T07:45:05;4.88;;;4.47;;
22652;SDS011;11493;43.344;26.226;2022-07-30T07:47:42;7.95;;;4.53;;
22652;SDS011;11493;43.344;26.226;2022-07-30T07:50:34;5.70;;;4.90;;
22652;SDS011;11493;43.344;26.226;2022-07-30T07:53:02;5.63;;;4.57;;
22652;SDS011;11493;43.344;26.226;2022-07-30T07:55:29;9.18;;;4.68;;
22652;SDS011;11493;43.344;26.226;2022-07-30T07:57:59;5.75;;;5.10;;
22652;SDS011;11493;43.344;26.226;2022-07-30T08:00:27;10.40;;;4.85;;
22652;SDS011;11493;43.344;26.226;2022-07-30T08:02:56;8.25;;;5.55;;
22652;SDS011;11493;43.344;26.226;2022-07-30T08:05:24;8.43;;;5.15;;
22652;SDS011;11493;43.344;26.226;2022-07-30T08:08:23;11.70;;;4.35;;
22652;SDS011;11493;43.344;26.226;2022-07-30T08:11:11;5.60;;;4.72;;
22652;SDS011;11493;43.344;26.226;2022-07-30T08:14:13;12.13;;;4.40;;
22652;SDS011;11493;43.344;26.226;2022-07-30T08:16:59;7.03;;;4.72;;
22652;SDS011;11493;43.344;26.226;2022-07-30T08:19:45;17.00;;;5.03;;
22652;SDS011;11493;43.344;26.226;2022-07-30T08:22:19;6.57;;;4.40;;
22652;SDS011;11493;43.344;26.226;2022-07-30T08:24:47;4.97;;;4.57;;
22652;SDS011;11493;43.344;26.226;2022-07-30T08:27:14;4.80;;;4.40;;
22652;SDS011;11493;43.344;26.226;2022-07-30T08:29:41;8.75;;;4.55;;
22652;SDS011;11493;43.344;26.226;2022-07-30T08:32:09;4.07;;;3.75;;
22652;SDS011;11493;43.344;26.226;2022-07-30T08:34:38;6.05;;;4.18;;
22652;SDS011;11493;43.344;26.226;2022-07-30T08:37:06;4.53;;;4.13;;
22652;SDS011;11493;43.344;26.226;2022-07-30T08:39:34;4.45;;;4.15;;
22652;SDS011;11493;43.344;26.226;2022-07-30T08:42:02;4.78;;;3.88;;
22652;SDS011;11493;43.344;26.226;2022-07-30T08:44:31;3.95;;;3.65;;
22652;SDS011;11493;43.344;26.226;2022-07-30T08:47:02;10.38;;;5.00;;
22652;SDS011;11493;43.344;26.226;2022-07-30T08:50:02;11.30;;;3.85;;
22652;SDS011;11493;43.344;26.226;2022-07-30T08:52:35;12.15;;;4.45;;
22652;SDS011;11493;43.344;26.226;2022-07-30T08:55:05;16.95;;;6.10;;
22652;SDS011;11493;43.344;26.226;2022-07-30T08:57:38;5.32;;;4.03;;
22652;SDS011;11493;43.344;26.226;2022-07-30T09:00:06;8.38;;;3.55;;
22652;SDS011;11493;43.344;26.226;2022-07-30T09:02:34;5.90;;;3.80;;
22652;SDS011;11493;43.344;26.226;2022-07-30T09:05:04;4.53;;;3.85;;
22652;SDS011;11493;43.344;26.226;2022-07-30T09:07:33;4.97;;;4.00;;
22652;SDS011;11493;43.344;26.226;2022-07-30T09:10:03;5.50;;;3.45;;
22652;SDS011;11493;43.344;26.226;2022-07-30T09:15:10;6.20;;;4.40;;
22652;SDS011;11493;43.344;26.226;2022-07-30T09:17:54;4.63;;;3.67;;
22652;SDS011;11493;43.344;26.226;2022-07-30T09:20:24;5.15;;;3.92;;
22652;SDS011;11493;43.344;26.226;2022-07-30T09:22:58;8.43;;;4.10;;
22652;SDS011;11493;43.344;26.226;2022-07-30T09:25:47;13.75;;;3.67;;
22652;SDS011;11493;43.344;26.226;2022-07-30T09:28:34;5.47;;;3.85;;
22652;SDS011;11493;43.344;26.226;2022-07-30T09:31:14;4.57;;;4.18;;
22652;SDS011;11493;43.344;26.226;2022-07-30T09:34:01;5.78;;;4.20;;
22652;SDS011;11493;43.344;26.226;2022-07-30T09:36:47;4.30;;;3.90;;
22652;SDS011;11493;43.344;26.226;2022-07-30T09:39:27;6.22;;;3.80;;
22652;SDS011;11493;43.344;26.226;2022-07-30T09:42:18;6.07;;;4.03;;
22652;SDS011;11493;43.344;26.226;2022-07-30T09:45:06;6.38;;;3.83;;
22652;SDS011;11493;43.344;26.226;2022-07-30T09:47:39;9.23;;;4.27;;
22652;SDS011;11493;43.344;26.226;2022-07-30T09:50:12;5.45;;;4.10;;
22652;SDS011;11493;43.344;26.226;2022-07-30T09:53:07;8.52;;;4.07;;
22652;SDS011;11493;43.344;26.226;2022-07-30T09:55:39;4.15;;;3.75;;
22652;SDS011;11493;43.344;26.226;2022-07-30T09:58:09;4.65;;;4.25;;
22652;SDS011;11493;43.344;26.226;2022-07-30T10:00:56;3.50;;;3.30;;
22652;SDS011;11493;43.344;26.226;2022-07-30T10:03:41;3.85;;;3.58;;
22652;SDS011;11493;43.344;26.226;2022-07-30T10:06:33;21.75;;;4.60;;
22652;SDS011;11493;43.344;26.226;2022-07-30T10:09:32;3.97;;;3.67;;
22652;SDS011;11493;43.344;26.226;2022-07-30T10:12:05;16.58;;;4.65;;
22652;SDS011;11493;43.344;26.226;2022-07-30T10:14:43;5.15;;;3.45;;
22652;SDS011;11493;43.344;26.226;2022-07-30T10:17:16;13.38;;;3.95;;
22652;SDS011;11493;43.344;26.226;2022-07-30T10:20:12;4.30;;;3.67;;
22652;SDS011;11493;43.344;26.226;2022-07-30T10:22:58;5.25;;;3.53;;
22652;SDS011;11493;43.344;26.226;2022-07-30T10:25:35;5.82;;;3.60;;
22652;SDS011;11493;43.344;26.226;2022-07-30T10:28:39;6.38;;;3.60;;
22652;SDS011;11493;43.344;26.226;2022-07-30T10:31:06;10.52;;;4.50;;
22652;SDS011;11493;43.344;26.226;2022-07-30T10:33:54;3.50;;;2.92;;
22652;SDS011;11493;43.344;26.226;2022-07-30T10:36:23;14.73;;;3.83;;
22652;SDS011;11493;43.344;26.226;2022-07-30T10:38:52;35.70;;;6.63;;
22652;SDS011;11493;43.344;26.226;2022-07-30T10:41:29;13.18;;;4.10;;
22652;SDS011;11493;43.344;26.226;2022-07-30T10:47:01;5.38;;;3.13;;
22652;SDS011;11493;43.344;26.226;2022-07-30T10:49:36;6.10;;;3.38;;
22652;SDS011;11493;43.344;26.226;2022-07-30T10:52:09;4.53;;;3.72;;
22652;SDS011;11493;43.344;26.226;2022-07-30T10:54:39;4.15;;;3.35;;
22652;SDS011;11493;43.344;26.226;2022-07-30T10:57:09;4.83;;;3.77;;
22652;SDS011;11493;43.344;26.226;2022-07-30T11:02:30;5.70;;;3.72;;
22652;SDS011;11493;43.344;26.226;2022-07-30T11:11:41;3.40;;;3.13;;
22652;SDS011;11493;43.344;26.226;2022-07-30T11:14:16;16.65;;;3.55;;
22652;SDS011;11493;43.344;26.226;2022-07-30T11:19:17;12.48;;;3.63;;
22652;SDS011;11493;43.344;26.226;2022-07-30T11:22:25;4.15;;;3.00;;
22652;SDS011;11493;43.344;26.226;2022-07-30T11:24:56;5.22;;;3.05;;
22652;SDS011;11493;43.344;26.226;2022-07-30T11:27:36;3.28;;;2.97;;
22652;SDS011;11493;43.344;26.226;2022-07-30T11:32:43;7.07;;;3.00;;
22652;SDS011;11493;43.344;26.226;2022-07-30T11:40:31;4.95;;;4.15;;
22652;SDS011;11493;43.344;26.226;2022-07-30T11:43:25;7.07;;;3.63;;
22652;SDS011;11493;43.344;26.226;2022-07-30T11:49:02;5.18;;;3.33;;
22652;SDS011;11493;43.344;26.226;2022-07-30T11:51:41;5.25;;;3.65;;
22652;SDS011;11493;43.344;26.226;2022-07-30T11:54:10;11.32;;;3.35;;
22652;SDS011;11493;43.344;26.226;2022-07-30T11:56:48;3.90;;;3.03;;
22652;SDS011;11493;43.344;26.226;2022-07-30T11:59:19;19.92;;;3.90;;
22652;SDS011;11493;43.344;26.226;2022-07-30T12:01:53;3.58;;;3.28;;
22652;SDS011;11493;43.344;26.226;2022-07-30T12:04:28;13.48;;;3.22;;
22652;SDS011;11493;43.344;26.226;2022-07-30T12:06:55;3.88;;;3.25;;
22652;SDS011;11493;43.344;26.226;2022-07-30T12:09:26;4.88;;;3.72;;
22652;SDS011;11493;43.344;26.226;2022-07-30T12:11:59;3.67;;;3.38;;
22652;SDS011;11493;43.344;26.226;2022-07-30T12:14:36;3.42;;;3.13;;
22652;SDS011;11493;43.344;26.226;2022-07-30T12:19:44;7.38;;;2.97;;
22652;SDS011;11493;43.344;26.226;2022-07-30T12:22:15;7.95;;;3.47;;
22652;SDS011;11493;43.344;26.226;2022-07-30T12:24:42;3.55;;;3.25;;
22652;SDS011;11493;43.344;26.226;2022-07-30T12:27:09;4.40;;;3.80;;
22652;SDS011;11493;43.344;26.226;2022-07-30T12:29:37;11.48;;;4.05;;
22652;SDS011;11493;43.344;26.226;2022-07-30T12:32:04;7.22;;;3.53;;
22652;SDS011;11493;43.344;26.226;2022-07-30T12:34:32;6.50;;;3.20;;
22652;SDS011;11493;43.344;26.226;2022-07-30T12:37:07;3.95;;;3.28;;
22652;SDS011;11493;43.344;26.226;2022-07-30T12:39:36;5.93;;;3.42;;
22652;SDS011;11493;43.344;26.226;2022-07-30T12:42:06;4.90;;;3.55;;
22652;SDS011;11493;43.344;26.226;2022-07-30T12:44:43;6.13;;;3.30;;
22652;SDS011;11493;43.344;26.226;2022-07-30T12:47:18;4.28;;;2.75;;
22652;SDS011;11493;43.344;26.226;2022-07-30T12:49:46;4.65;;;3.25;;
22652;SDS011;11493;43.344;26.226;2022-07-30T12:52:29;3.63;;;3.03;;
22652;SDS011;11493;43.344;26.226;2022-07-30T13:00:23;5.88;;;2.88;;
22652;SDS011;11493;43.344;26.226;2022-07-30T13:02:52;4.33;;;3.97;;
22652;SDS011;11493;43.344;26.226;2022-07-30T13:05:40;7.15;;;3.45;;
22652;SDS011;11493;43.344;26.226;2022-07-30T13:08:14;3.88;;;3.55;;
22652;SDS011;11493;43.344;26.226;2022-07-30T13:10:58;5.20;;;3.15;;
22652;SDS011;11493;43.344;26.226;2022-07-30T13:13:27;8.23;;;2.90;;
22652;SDS011;11493;43.344;26.226;2022-07-30T13:15:59;8.38;;;3.70;;
22652;SDS011;11493;43.344;26.226;2022-07-30T13:18:38;4.07;;;3.20;;
22652;SDS011;11493;43.344;26.226;2022-07-30T13:21:09;6.50;;;3.47;;
22652;SDS011;11493;43.344;26.226;2022-07-30T13:23:37;5.80;;;3.08;;
22652;SDS011;11493;43.344;26.226;2022-07-30T13:26:07;7.63;;;4.03;;
22652;SDS011;11493;43.344;26.226;2022-07-30T13:28:35;5.35;;;3.00;;
22652;SDS011;11493;43.344;26.226;2022-07-30T13:31:03;4.50;;;3.47;;
22652;SDS011;11493;43.344;26.226;2022-07-30T13:33:30;5.18;;;2.72;;
22652;SDS011;11493;43.344;26.226;2022-07-30T13:35:58;3.13;;;2.83;;
22652;SDS011;11493;43.344;26.226;2022-07-30T13:38:26;4.97;;;2.38;;
22652;SDS011;11493;43.344;26.226;2022-07-30T13:40:54;3.38;;;2.50;;
22652;SDS011;11493;43.344;26.226;2022-07-30T13:43:28;8.48;;;3.10;;
22652;SDS011;11493;43.344;26.226;2022-07-30T13:45:59;5.93;;;3.05;;
22652;SDS011;11493;43.344;26.226;2022-07-30T13:48:28;4.10;;;2.83;;
22652;SDS011;11493;43.344;26.226;2022-07-30T13:50:56;6.18;;;2.85;;
22652;SDS011;11493;43.344;26.226;2022-07-30T13:53:26;5.25;;;2.95;;
22652;SDS011;11493;43.344;26.226;2022-07-30T13:55:54;4.30;;;2.75;;
22652;SDS011;11493;43.344;26.226;2022-07-30T13:58:22;5.32;;;3.50;;
22652;SDS011;11493;43.344;26.226;2022-07-30T14:00:49;5.93;;;3.10;;
22652;SDS011;11493;43.344;26.226;2022-07-30T14:03:17;5.55;;;3.10;;
22652;SDS011;11493;43.344;26.226;2022-07-30T14:05:46;5.60;;;2.90;;
22652;SDS011;11493;43.344;26.226;2022-07-30T14:08:14;3.83;;;2.78;;
22652;SDS011;11493;43.344;26.226;2022-07-30T14:10:41;4.65;;;3.10;;
22652;SDS011;11493;43.344;26.226;2022-07-30T14:13:09;4.32;;;3.42;;
22652;SDS011;11493;43.344;26.226;2022-07-30T14:15:46;3.58;;;2.70;;
22652;SDS011;11493;43.344;26.226;2022-07-30T14:18:14;7.35;;;2.90;;
22652;SDS011;11493;43.344;26.226;2022-07-30T14:20:41;5.53;;;2.92;;
22652;SDS011;11493;43.344;26.226;2022-07-30T14:23:14;11.85;;;3.47;;
22652;SDS011;11493;43.344;26.226;2022-07-30T14:25:42;4.82;;;4.43;;
22652;SDS011;11493;43.344;26.226;2022-07-30T14:28:12;5.38;;;3.03;;
22652;SDS011;11493;43.344;26.226;2022-07-30T14:30:40;4.03;;;2.88;;
22652;SDS011;11493;43.344;26.226;2022-07-30T14:33:08;4.63;;;2.63;;
22652;SDS011;11493;43.344;26.226;2022-07-30T14:35:37;10.38;;;3.40;;
22652;SDS011;11493;43.344;26.226;2022-07-30T14:38:04;5.03;;;3.28;;
22652;SDS011;11493;43.344;26.226;2022-07-30T14:40:31;6.93;;;3.35;;
22652;SDS011;11493;43.344;26.226;2022-07-30T14:42:59;5.47;;;3.15;;
22652;SDS011;11493;43.344;26.226;2022-07-30T14:45:26;3.42;;;3.13;;
22652;SDS011;11493;43.344;26.226;2022-07-30T14:47:54;3.00;;;2.70;;
22652;SDS011;11493;43.344;26.226;2022-07-30T14:50:22;3.75;;;3.05;;
22652;SDS011;11493;43.344;26.226;2022-07-30T14:52:49;5.20;;;2.80;;
22652;SDS011;11493;43.344;26.226;2022-07-30T14:55:17;4.10;;;2.80;;
22652;SDS011;11493;43.344;26.226;2022-07-30T14:57:45;3.70;;;3.40;;
22652;SDS011;11493;43.344;26.226;2022-07-30T15:00:13;6.57;;;3.50;;
22652;SDS011;11493;43.344;26.226;2022-07-30T15:02:40;6.88;;;3.17;;
22652;SDS011;11493;43.344;26.226;2022-07-30T15:05:08;4.82;;;3.25;;
22652;SDS011;11493;43.344;26.226;2022-07-30T15:07:35;3.15;;;2.85;;
22652;SDS011;11493;43.344;26.226;2022-07-30T15:10:03;4.10;;;3.15;;
22652;SDS011;11493;43.344;26.226;2022-07-30T15:12:33;5.93;;;2.97;;
22652;SDS011;11493;43.344;26.226;2022-07-30T15:15:03;4.30;;;3.28;;
22652;SDS011;11493;43.344;26.226;2022-07-30T15:17:33;6.57;;;3.08;;
22652;SDS011;11493;43.344;26.226;2022-07-30T15:20:02;6.20;;;2.92;;
22652;SDS011;11493;43.344;26.226;2022-07-30T15:22:36;6.65;;;3.00;;
22652;SDS011;11493;43.344;26.226;2022-07-30T15:25:04;3.28;;;2.97;;
22652;SDS011;11493;43.344;26.226;2022-07-30T15:27:32;7.55;;;3.00;;
22652;SDS011;11493;43.344;26.226;2022-07-30T15:30:00;6.68;;;3.67;;
22652;SDS011;11493;43.344;26.226;2022-07-30T15:32:29;4.07;;;3.17;;
22652;SDS011;11493;43.344;26.226;2022-07-30T15:34:56;4.13;;;3.83;;
22652;SDS011;11493;43.344;26.226;2022-07-30T15:37:24;6.20;;;3.60;;
22652;SDS011;11493;43.344;26.226;2022-07-30T15:39:52;13.02;;;3.67;;
22652;SDS011;11493;43.344;26.226;2022-07-30T15:42:19;7.22;;;3.70;;
22652;SDS011;11493;43.344;26.226;2022-07-30T15:44:46;4.60;;;3.85;;
22652;SDS011;11493;43.344;26.226;2022-07-30T15:47:14;6.13;;;3.65;;
22652;SDS011;11493;43.344;26.226;2022-07-30T15:49:42;9.93;;;3.95;;